Time;durP1;ratioP1;P1;durP2;ratioP2;P2;SDS_P1;SDS_P2;PMS_P1;PMS_P2;Temp;Humidity;BMP_temperature;BMP_pressure;BME280_temperature;BME280_humidity;BME280_pressure;Samples;Min_cycle;Max_cycle;Signal;HPM_P1;HPM_P2
2021/05/29 00:01:55;;;;;;;10.30;5.95;;;;;;;15.01;66.54;101548.72;4429695;32;20045;-75
2021/05/29 00:04:21;;;;;;;12.25;6.55;;;;;;;14.95;66.68;101552.53;4424035;32;20132;-75
2021/05/29 00:06:47;;;;;;;11.93;6.80;;;;;;;14.90;66.81;101553.09;4420448;32;20432;-75
2021/05/29 00:09:13;;;;;;;12.68;6.87;;;;;;;14.97;66.56;101547.22;4423819;32;20532;-75
2021/05/29 00:11:38;;;;;;;13.18;6.30;;;;;;;14.95;66.77;101556.19;4422018;32;20117;-75
2021/05/29 00:14:04;;;;;;;14.00;6.15;;;;;;;14.83;67.09;101554.09;4424972;32;20026;-75
2021/05/29 00:16:30;;;;;;;17.20;6.00;;;;;;;14.80;67.15;101551.34;4424546;32;20042;-75
2021/05/29 00:18:56;;;;;;;18.95;6.40;;;;;;;14.80;67.12;101555.00;4424400;32;20422;-76
2021/05/29 00:21:22;;;;;;;16.90;6.78;;;;;;;14.72;67.51;101550.75;4424389;32;20120;-75
2021/05/29 00:23:47;;;;;;;9.98;5.75;;;;;;;14.74;67.23;101553.16;4414798;32;20022;-76
2021/05/29 00:26:13;;;;;;;13.75;5.45;;;;;;;14.73;67.30;101554.41;4413639;32;20056;-75
2021/05/29 00:28:39;;;;;;;12.23;5.53;;;;;;;14.68;67.47;101552.91;4416550;32;20496;-76
2021/05/29 00:31:05;;;;;;;12.88;5.00;;;;;;;14.57;67.53;101555.22;4413602;32;20065;-75
2021/05/29 00:33:30;;;;;;;8.77;4.50;;;;;;;14.56;67.29;101558.50;4416524;32;20304;-75
2021/05/29 00:35:56;;;;;;;10.60;4.65;;;;;;;14.53;67.15;101550.91;4413013;32;20060;-75
2021/05/29 00:38:22;;;;;;;10.80;4.95;;;;;;;14.47;67.28;101550.66;4410738;32;20156;-75
2021/05/29 00:40:48;;;;;;;10.20;4.75;;;;;;;14.44;67.41;101548.72;4415283;32;20646;-75
2021/05/29 00:43:14;;;;;;;8.95;5.32;;;;;;;14.40;67.70;101547.22;4416239;32;20076;-75
2021/05/29 00:45:40;;;;;;;8.90;5.15;;;;;;;14.37;67.68;101546.06;4413817;32;20060;-75
2021/05/29 00:48:06;;;;;;;9.73;5.10;;;;;;;14.31;67.86;101555.53;4413021;32;20076;-75
2021/05/29 00:50:33;;;;;;;9.40;5.12;;;;;;;14.30;67.67;101557.56;4416112;32;20358;-75
2021/05/29 00:53:00;;;;;;;8.57;4.93;;;;;;;14.29;67.54;101550.31;4415901;32;20037;-75
2021/05/29 00:55:27;;;;;;;9.65;5.70;;;;;;;14.28;67.41;101562.09;4415734;32;20038;-75
2021/05/29 00:57:53;;;;;;;11.45;5.40;;;;;;;14.27;67.62;101550.00;4413406;32;20106;-75
2021/05/29 01:00:22;;;;;;;8.88;5.22;;;;;;;14.26;67.67;101553.28;4411033;32;20461;-75
2021/05/29 01:02:49;;;;;;;7.47;4.50;;;;;;;14.26;67.67;101558.94;4415941;32;20069;-75
2021/05/29 01:05:17;;;;;;;8.30;4.95;;;;;;;14.21;67.59;101560.22;4414356;32;20034;-75
2021/05/29 01:07:48;;;;;;;7.97;4.18;;;;;;;14.17;67.37;101556.69;4414660;32;20159;-75
2021/05/29 01:10:16;;;;;;;8.63;5.25;;;;;;;14.23;67.04;101560.59;4412014;32;20042;-75
2021/05/29 01:12:41;;;;;;;8.93;4.65;;;;;;;14.18;67.22;101555.47;4411038;32;20108;-75
2021/05/29 01:15:08;;;;;;;8.65;4.85;;;;;;;14.11;67.58;101557.66;4415422;32;20774;-75
2021/05/29 01:17:34;;;;;;;9.68;5.07;;;;;;;14.09;67.79;101561.72;4414706;32;20187;-75
2021/05/29 01:20:00;;;;;;;9.25;5.47;;;;;;;14.06;68.03;101565.44;4415158;32;20074;-75
2021/05/29 01:22:48;;;;;;;9.98;5.68;;;;;;;14.02;68.15;101561.09;4410724;32;20153;-75
2021/05/29 01:27:57;;;;;;;11.88;5.70;;;;;;;14.55;67.24;101574.72;3987623;32;15023471;-74
2021/05/29 01:30:23;;;;;;;10.85;5.62;;;;;;;14.55;67.24;101574.72;4440515;32;20492;-75
2021/05/29 01:32:49;;;;;;;11.63;5.75;;;;;;;14.15;67.96;101566.84;4439624;32;20068;-74
2021/05/29 01:35:15;;;;;;;10.80;5.82;;;;;;;14.19;67.83;101574.03;4441461;32;20041;-74
2021/05/29 01:37:42;;;;;;;9.43;5.60;;;;;;;14.13;67.95;101578.63;4439114;32;20103;-74
2021/05/29 01:40:09;;;;;;;9.68;5.43;;;;;;;14.15;67.87;101578.19;4438176;32;20041;-74
2021/05/29 01:42:37;;;;;;;9.35;5.80;;;;;;;14.12;68.07;101577.03;4439513;32;20175;-74
2021/05/29 01:45:06;;;;;;;9.63;5.22;;;;;;;14.08;68.29;101567.81;4440987;32;20167;-74
2021/05/29 01:47:34;;;;;;;10.57;5.82;;;;;;;14.01;68.33;101588.63;4440701;32;20069;-74
2021/05/29 01:50:02;;;;;;;10.23;5.87;;;;;;;14.04;67.94;101582.09;4441102;32;20037;-74
2021/05/29 01:52:51;;;;;;;7.70;5.32;;;;;;;14.28;67.52;101596.06;4437878;32;20453;-74
2021/05/29 01:55:20;;;;;;;11.73;5.45;;;;;;;14.22;67.72;101592.16;4437512;32;20149;-74
2021/05/29 01:57:46;;;;;;;9.73;5.62;;;;;;;14.16;67.89;101593.91;4440874;32;20485;-74
2021/05/29 02:00:13;;;;;;;10.07;5.72;;;;;;;14.21;67.36;101591.38;4434389;32;20184;-74
2021/05/29 02:02:39;;;;;;;9.55;5.32;;;;;;;14.21;67.27;101593.41;4424282;32;20370;-74
2021/05/29 02:07:50;;;;;;;9.40;5.28;;;;;;;14.58;66.97;101595.69;3986739;32;15022210;-74
2021/05/29 02:10:20;;;;;;;9.43;5.10;;;;;;;14.58;66.97;101595.69;4431471;32;20204;-74
2021/05/29 02:12:48;;;;;;;7.50;4.53;;;;;;;14.19;67.63;101585.34;4440115;32;20064;-74
2021/05/29 02:15:18;;;;;;;7.93;5.05;;;;;;;14.12;67.57;101581.91;4437991;32;20098;-74
2021/05/29 02:17:46;;;;;;;8.80;4.35;;;;;;;14.25;67.14;101594.12;4437323;32;20092;-74
2021/05/29 02:20:13;;;;;;;12.02;4.57;;;;;;;14.25;67.16;101591.28;4437600;32;20040;-74
2021/05/29 02:22:39;;;;;;;6.40;3.97;;;;;;;14.18;66.73;101589.44;4437485;32;20072;-74
2021/05/29 02:25:06;;;;;;;6.80;4.32;;;;;;;14.25;66.39;101588.47;4440682;32;20037;-74
2021/05/29 02:27:32;;;;;;;8.75;4.37;;;;;;;14.36;66.29;101584.09;4438025;32;20062;-74
2021/05/29 02:29:58;;;;;;;8.55;4.65;;;;;;;14.44;65.74;101585.53;4441283;32;20024;-74
2021/05/29 02:32:23;;;;;;;8.70;4.55;;;;;;;14.51;65.55;101584.56;4437487;32;20120;-74
2021/05/29 02:34:49;;;;;;;7.80;4.28;;;;;;;14.56;65.38;101589.66;4438447;32;20537;-74
2021/05/29 02:37:15;;;;;;;6.53;4.50;;;;;;;14.70;65.13;101592.91;4440113;32;20073;-74
2021/05/29 02:39:40;;;;;;;8.93;4.72;;;;;;;14.70;64.70;101601.41;4440677;32;20072;-74
2021/05/29 02:42:06;;;;;;;10.20;4.90;;;;;;;14.72;64.92;101583.94;4439901;32;20651;-74
2021/05/29 02:44:32;;;;;;;11.07;5.10;;;;;;;14.83;64.62;101601.47;4436917;32;20072;-75
2021/05/29 02:46:59;;;;;;;10.13;4.78;;;;;;;14.88;64.47;101598.88;4437857;32;20018;-74
2021/05/29 02:49:25;;;;;;;7.90;4.78;;;;;;;14.94;64.39;101605.59;4438488;32;20041;-74
2021/05/29 02:51:51;;;;;;;7.25;4.78;;;;;;;14.81;64.72;101601.91;4438131;32;20045;-75
2021/05/29 02:54:16;;;;;;;6.82;4.75;;;;;;;14.89;64.54;101603.31;4439360;32;20013;-75
2021/05/29 02:56:43;;;;;;;8.48;5.05;;;;;;;14.95;64.76;101610.03;4430860;32;20095;-74
2021/05/29 02:59:09;;;;;;;7.40;5.25;;;;;;;14.93;64.83;101604.00;4441121;32;20041;-74
2021/05/29 03:01:35;;;;;;;8.50;5.00;;;;;;;15.07;64.35;101611.31;4431002;32;20033;-74
2021/05/29 03:04:01;;;;;;;9.23;4.78;;;;;;;15.08;64.16;101602.38;4422278;32;20088;-74
2021/05/29 03:06:27;;;;;;;12.40;4.65;;;;;;;15.11;64.13;101604.31;4422412;32;20072;-74
2021/05/29 03:08:53;;;;;;;6.70;4.20;;;;;;;15.22;63.60;101616.13;4421555;32;20037;-74
2021/05/29 03:11:18;;;;;;;8.73;4.60;;;;;;;15.25;63.21;101612.38;4423953;32;20046;-74
2021/05/29 03:13:44;;;;;;;7.78;4.53;;;;;;;15.25;63.60;101611.59;4425231;32;20060;-74
2021/05/29 03:16:10;;;;;;;11.55;4.82;;;;;;;15.32;63.33;101611.38;4424182;32;20068;-74
2021/05/29 03:18:36;;;;;;;12.15;4.28;;;;;;;15.31;63.41;101615.47;4412804;32;20080;-74
2021/05/29 03:21:02;;;;;;;6.50;4.60;;;;;;;15.37;63.03;101614.47;4412022;32;20398;-74
2021/05/29 03:23:29;;;;;;;8.88;4.10;;;;;;;15.38;62.65;101618.12;4415806;32;20033;-74
2021/05/29 03:25:54;;;;;;;6.43;4.20;;;;;;;15.46;62.51;101619.50;4414295;32;20132;-74
2021/05/29 03:28:20;;;;;;;6.10;4.15;;;;;;;15.47;62.39;101616.19;4412130;32;20034;-74
2021/05/29 03:30:48;;;;;;;9.05;4.50;;;;;;;15.52;62.39;101617.69;4411899;32;20046;-74
2021/05/29 03:33:13;;;;;;;9.35;4.40;;;;;;;15.64;62.10;101626.22;4411506;32;20496;-74
2021/05/29 03:35:41;;;;;;;7.35;4.65;;;;;;;15.63;62.21;101626.69;4412682;32;20081;-74
2021/05/29 03:38:07;;;;;;;8.52;4.50;;;;;;;15.71;61.78;101620.31;4411289;32;20093;-74
2021/05/29 03:40:33;;;;;;;7.50;4.70;;;;;;;15.75;61.61;101618.19;4411941;32;20041;-74
2021/05/29 03:42:59;;;;;;;7.28;4.65;;;;;;;15.79;61.53;101618.88;4415501;32;20107;-74
2021/05/29 03:45:25;;;;;;;6.40;4.55;;;;;;;15.72;61.65;101624.78;4414688;32;20046;-74
2021/05/29 03:47:52;;;;;;;8.30;4.65;;;;;;;15.78;61.67;101625.78;4413354;32;21303;-74
2021/05/29 03:50:22;;;;;;;6.05;4.55;;;;;;;15.75;61.76;101628.75;4414948;32;20448;-74
2021/05/29 03:52:48;;;;;;;8.73;4.45;;;;;;;15.78;61.92;101625.78;4409058;32;20037;-74
2021/05/29 03:55:15;;;;;;;8.88;5.37;;;;;;;15.83;61.75;101627.25;4414623;32;20118;-74
2021/05/29 03:57:42;;;;;;;9.10;5.18;;;;;;;15.81;61.64;101629.78;4414717;32;20378;-74
2021/05/29 04:00:10;;;;;;;8.23;4.65;;;;;;;15.82;61.97;101622.84;4415751;32;20069;-74
2021/05/29 04:02:36;;;;;;;7.57;4.78;;;;;;;15.86;62.13;101635.66;4408827;32;20034;-74
2021/05/29 04:05:03;;;;;;;8.45;5.12;;;;;;;15.90;61.83;101630.66;4415726;32;20074;-75
2021/05/29 04:07:28;;;;;;;10.95;5.07;;;;;;;15.89;61.82;101633.94;4412190;32;20472;-76
2021/05/29 04:09:54;;;;;;;11.18;5.45;;;;;;;15.87;61.94;101637.25;4417140;32;20034;-75
2021/05/29 04:12:20;;;;;;;8.13;5.57;;;;;;;15.82;62.29;101635.00;4412943;32;20158;-75
2021/05/29 04:14:46;;;;;;;10.05;5.15;;;;;;;15.79;62.74;101629.41;4415719;32;20065;-75
2021/05/29 04:17:12;;;;;;;11.80;5.80;;;;;;;15.76;62.94;101628.28;4412938;32;20069;-74
2021/05/29 04:19:38;;;;;;;9.45;5.57;;;;;;;15.78;63.01;101631.44;4412415;32;20079;-75
2021/05/29 04:22:04;;;;;;;10.30;5.55;;;;;;;15.66;63.25;101632.25;4410811;32;20103;-75
2021/05/29 04:24:30;;;;;;;7.25;5.00;;;;;;;15.66;63.71;101628.62;4413940;32;20060;-74
2021/05/29 04:26:56;;;;;;;10.05;5.10;;;;;;;15.69;63.78;101633.37;4413616;32;20042;-75
2021/05/29 04:29:22;;;;;;;11.12;5.10;;;;;;;15.61;63.70;101635.62;4415592;32;21499;-75
2021/05/29 04:31:48;;;;;;;9.88;5.05;;;;;;;15.52;63.97;101643.22;4409499;32;20045;-75
2021/05/29 04:34:14;;;;;;;10.35;5.25;;;;;;;15.54;63.69;101643.56;4414622;32;20195;-75
2021/05/29 04:36:39;;;;;;;7.03;5.10;;;;;;;15.59;63.69;101649.47;4414520;32;20038;-75
2021/05/29 04:39:05;;;;;;;9.25;5.60;;;;;;;15.63;63.28;101650.19;4414602;32;20493;-75
2021/05/29 04:41:32;;;;;;;8.20;5.37;;;;;;;15.64;63.67;101653.81;4412594;32;20061;-75
2021/05/29 04:43:58;;;;;;;8.68;5.07;;;;;;;15.73;63.64;101663.25;4415243;32;20050;-75
2021/05/29 04:46:24;;;;;;;8.48;5.30;;;;;;;15.85;63.30;101664.50;4413091;32;20090;-75
2021/05/29 04:48:50;;;;;;;9.55;4.60;;;;;;;16.07;62.54;101662.59;4414332;32;20099;-75
2021/05/29 04:51:16;;;;;;;9.00;5.00;;;;;;;16.23;61.64;101653.94;4407419;32;20049;-75
2021/05/29 04:53:44;;;;;;;9.90;5.00;;;;;;;16.35;61.02;101660.87;4412337;32;20375;-75
2021/05/29 04:56:11;;;;;;;9.32;5.28;;;;;;;16.48;60.38;101665.31;4412003;32;20159;-75
2021/05/29 04:58:38;;;;;;;7.72;4.65;;;;;;;16.56;60.29;101666.66;4412860;32;20094;-75
2021/05/29 05:01:07;;;;;;;7.35;4.62;;;;;;;16.67;59.87;101667.09;4412500;32;20097;-74
2021/05/29 05:03:33;;;;;;;8.00;5.03;;;;;;;16.82;59.30;101675.94;4412699;32;20129;-75
2021/05/29 05:05:59;;;;;;;7.25;4.45;;;;;;;16.89;58.87;101675.69;4410508;32;20082;-75
2021/05/29 05:08:25;;;;;;;11.23;5.00;;;;;;;17.02;58.63;101674.37;4411877;32;20049;-75
2021/05/29 05:10:52;;;;;;;9.88;4.53;;;;;;;17.14;58.43;101678.44;4412074;32;20084;-75
2021/05/29 05:13:19;;;;;;;9.00;4.85;;;;;;;17.32;57.99;101681.41;4412239;32;20056;-74
2021/05/29 05:15:45;;;;;;;7.68;4.93;;;;;;;17.50;57.48;101682.41;4413609;32;20114;-75
2021/05/29 05:18:10;;;;;;;7.68;4.70;;;;;;;17.59;57.12;101685.31;4411559;32;20478;-75
2021/05/29 05:20:36;;;;;;;10.05;5.47;;;;;;;17.83;56.64;101680.69;4411757;32;20072;-75
2021/05/29 05:23:04;;;;;;;8.80;5.05;;;;;;;17.92;56.03;101680.75;4411666;32;20049;-75
2021/05/29 05:25:30;;;;;;;9.05;4.75;;;;;;;17.97;56.05;101684.25;4413061;32;20056;-75
2021/05/29 05:27:56;;;;;;;6.43;4.37;;;;;;;18.12;55.77;101685.25;4409334;32;20038;-74
2021/05/29 05:30:23;;;;;;;8.90;5.07;;;;;;;18.19;55.51;101688.63;4412963;32;20444;-75
2021/05/29 05:32:50;;;;;;;7.45;4.70;;;;;;;18.19;55.14;101694.31;4408937;32;20041;-75
2021/05/29 05:35:16;;;;;;;9.27;5.07;;;;;;;18.21;55.50;101700.34;4415812;32;20093;-76
2021/05/29 05:37:43;;;;;;;8.65;4.75;;;;;;;18.34;55.18;101697.38;4412002;32;20034;-75
2021/05/29 05:40:10;;;;;;;9.90;5.20;;;;;;;18.44;54.90;101704.75;4412067;32;20081;-75
2021/05/29 05:42:37;;;;;;;10.02;5.37;;;;;;;18.48;54.33;101689.09;4411798;32;20118;-75
2021/05/29 05:45:04;;;;;;;12.25;5.28;;;;;;;18.54;54.01;101695.75;4411977;32;20026;-75
2021/05/29 05:47:30;;;;;;;8.15;5.20;;;;;;;18.57;53.87;101705.44;4410425;32;20054;-75
2021/05/29 05:49:56;;;;;;;11.70;5.53;;;;;;;18.62;53.80;101704.81;4413591;32;20120;-75
2021/05/29 05:52:22;;;;;;;10.30;5.25;;;;;;;18.67;53.32;101707.03;4412684;32;20022;-75
2021/05/29 05:54:48;;;;;;;14.75;5.25;;;;;;;18.73;53.12;101717.34;4412459;32;20069;-75
2021/05/29 05:57:14;;;;;;;9.15;5.28;;;;;;;18.84;52.78;101719.75;4412925;32;20502;-75
2021/05/29 05:59:40;;;;;;;10.32;5.45;;;;;;;18.97;52.43;101714.72;4412454;32;20056;-75
2021/05/29 06:02:07;;;;;;;9.40;6.05;;;;;;;19.06;52.16;101714.72;4410903;32;20849;-75
2021/05/29 06:04:33;;;;;;;12.50;5.82;;;;;;;19.24;51.81;101723.31;4410903;32;20102;-75
2021/05/29 06:06:58;;;;;;;10.35;5.40;;;;;;;19.44;51.03;101727.28;4413930;32;20489;-74
2021/05/29 06:09:24;;;;;;;9.05;5.90;;;;;;;19.39;50.85;101725.06;4415364;32;20535;-75
2021/05/29 06:11:50;;;;;;;12.37;6.40;;;;;;;19.62;50.73;101726.47;4409979;32;20081;-75
2021/05/29 06:19:48;;;;;;;16.30;7.63;;;;;;;19.94;49.54;101734.34;4410765;32;19957;-75
2021/05/29 06:22:14;;;;;;;12.48;7.60;;;;;;;19.98;49.84;101737.88;4409845;32;20093;-75
2021/05/29 06:24:39;;;;;;;14.20;7.62;;;;;;;19.96;49.87;101743.25;4413077;32;20517;-75
2021/05/29 06:27:06;;;;;;;10.85;6.50;;;;;;;20.05;49.81;101748.16;4412790;32;20034;-75
2021/05/29 06:29:32;;;;;;;11.90;7.62;;;;;;;20.11;49.52;101749.88;4413674;32;20082;-75
2021/05/29 06:31:58;;;;;;;10.88;7.28;;;;;;;20.16;49.25;101757.84;4408824;32;20168;-75
2021/05/29 06:34:24;;;;;;;13.52;7.55;;;;;;;20.27;49.49;101743.81;4412398;32;20155;-76
2021/05/29 06:36:50;;;;;;;14.55;8.73;;;;;;;20.41;48.95;101754.59;4411693;32;20093;-74
2021/05/29 06:39:17;;;;;;;14.75;9.25;;;;;;;20.69;48.45;101756.06;4411961;32;20046;-75
2021/05/29 06:41:43;;;;;;;17.05;8.32;;;;;;;20.58;48.06;101747.19;4411553;32;20077;-75
2021/05/29 06:44:10;;;;;;;15.95;9.20;;;;;;;20.90;48.05;101762.78;4411544;32;20034;-74
2021/05/29 06:46:37;;;;;;;18.17;10.02;;;;;;;21.23;47.66;101758.59;4411668;32;20140;-75
2021/05/29 06:49:03;;;;;;;21.75;9.70;;;;;;;21.53;46.75;101754.56;4413206;32;20079;-75
2021/05/29 06:51:35;;;;;;;16.25;9.85;;;;;;;21.36;46.81;101767.72;4411106;32;20049;-75
2021/05/29 06:54:09;;;;;;;17.37;9.75;;;;;;;21.46;47.06;101771.31;4412091;32;20094;-75
2021/05/29 06:59:21;;;;;;;17.73;11.75;;;;;;;21.85;46.40;101772.13;4416316;32;20336;-74
2021/05/29 07:01:46;;;;;;;23.50;12.90;;;;;;;21.88;46.54;101777.69;4411915;32;20443;-74
2021/05/29 07:04:12;;;;;;;17.80;12.00;;;;;;;22.14;45.99;101770.06;4413296;32;20152;-75
2021/05/29 07:06:38;;;;;;;20.40;12.70;;;;;;;22.16;46.06;101783.91;4414323;32;20438;-74
2021/05/29 07:09:04;;;;;;;21.42;14.02;;;;;;;21.78;46.53;101775.38;4416794;32;20188;-74
2021/05/29 07:11:30;;;;;;;27.83;13.60;;;;;;;21.34;47.85;101775.22;4415285;32;20100;-75
2021/05/29 07:13:55;;;;;;;17.20;11.77;;;;;;;21.48;47.65;101780.22;4411917;32;20070;-74
2021/05/29 07:16:21;;;;;;;22.48;11.90;;;;;;;21.70;47.29;101781.44;4414324;32;20109;-75
2021/05/29 07:18:48;;;;;;;21.83;11.73;;;;;;;21.79;46.88;101783.50;4412694;32;20128;-74
2021/05/29 07:21:16;;;;;;;19.83;12.85;;;;;;;21.93;46.82;101785.56;4413386;32;20104;-75
2021/05/29 07:23:45;;;;;;;25.23;13.68;;;;;;;22.03;46.31;101794.88;4414545;32;20101;-75
2021/05/29 07:26:11;;;;;;;21.30;12.95;;;;;;;22.12;46.08;101789.06;4414818;32;20095;-74
2021/05/29 07:28:37;;;;;;;22.75;13.05;;;;;;;22.28;45.74;101789.37;4413944;32;20038;-75
2021/05/29 07:31:02;;;;;;;22.90;11.88;;;;;;;22.43;45.20;101795.09;4412048;32;21216;-75
2021/05/29 07:33:28;;;;;;;23.65;11.57;;;;;;;22.64;45.00;101805.38;4413546;32;20030;-75
2021/05/29 07:35:55;;;;;;;21.50;12.85;;;;;;;23.00;44.07;101810.63;4412619;32;20105;-74
2021/05/29 07:38:22;;;;;;;19.25;11.38;;;;;;;23.28;43.51;101806.91;4414499;32;20065;-75
2021/05/29 07:40:48;;;;;;;18.67;10.95;;;;;;;23.54;42.83;101809.87;4413378;32;20358;-75
2021/05/29 07:43:14;;;;;;;28.12;11.50;;;;;;;23.88;42.37;101811.84;4425702;32;20103;-75
2021/05/29 07:45:40;;;;;;;21.42;11.75;;;;;;;24.06;41.96;101811.56;4414777;32;20046;-75
2021/05/29 07:48:08;;;;;;;23.83;12.85;;;;;;;24.13;41.88;101816.84;4415943;32;20030;-75
2021/05/29 07:50:34;;;;;;;22.98;12.07;;;;;;;24.17;42.00;101811.66;4411844;32;20038;-74
2021/05/29 07:53:01;;;;;;;24.17;12.20;;;;;;;24.24;41.39;101821.94;4410894;32;20086;-75
2021/05/29 07:55:29;;;;;;;16.85;10.63;;;;;;;24.56;40.92;101821.47;4414792;32;20064;-75
2021/05/29 07:57:55;;;;;;;21.85;11.63;;;;;;;24.71;40.21;101822.16;4413185;32;20068;-74
2021/05/29 08:00:25;;;;;;;17.30;10.52;;;;;;;24.65;40.28;101832.03;4412425;32;20034;-75
2021/05/29 08:02:51;;;;;;;19.87;10.57;;;;;;;24.55;40.35;101834.28;4411668;32;20034;-75
2021/05/29 08:05:19;;;;;;;16.02;10.45;;;;;;;24.76;40.27;101841.53;4414654;32;20068;-75
2021/05/29 08:07:46;;;;;;;19.30;9.90;;;;;;;24.79;40.35;101846.28;4410713;32;21771;-75
2021/05/29 08:10:13;;;;;;;19.85;10.63;;;;;;;25.04;39.64;101845.41;4411849;32;20476;-75
2021/05/29 08:12:39;;;;;;;19.67;10.43;;;;;;;25.25;39.16;101851.88;4411408;32;20422;-74
2021/05/29 08:15:06;;;;;;;17.55;10.18;;;;;;;25.47;38.64;101845.47;4413813;32;20091;-74
2021/05/29 08:17:32;;;;;;;20.92;10.38;;;;;;;25.42;39.17;101846.19;4409979;32;20053;-74
2021/05/29 08:19:59;;;;;;;19.92;10.50;;;;;;;25.36;39.49;101857.72;4412167;32;20038;-75
2021/05/29 08:22:24;;;;;;;17.42;8.95;;;;;;;25.63;38.86;101845.53;4407727;32;20061;-74
2021/05/29 08:24:50;;;;;;;15.70;9.48;;;;;;;25.90;37.97;101850.63;4413005;32;20018;-75
2021/05/29 08:27:16;;;;;;;16.70;10.02;;;;;;;25.87;38.19;101862.41;4413102;32;20068;-75
2021/05/29 08:29:42;;;;;;;13.40;8.95;;;;;;;25.89;37.84;101860.59;4412754;32;20042;-75
2021/05/29 08:32:08;;;;;;;17.70;10.07;;;;;;;25.38;38.92;101869.53;4409128;32;20065;-75
2021/05/29 08:34:34;;;;;;;16.27;9.85;;;;;;;25.50;38.55;101862.50;4411202;32;20062;-75
2021/05/29 08:37:00;;;;;;;13.70;9.18;;;;;;;25.34;38.56;101866.88;4411473;32;20484;-75
2021/05/29 08:39:25;;;;;;;12.40;9.48;;;;;;;25.34;38.29;101863.97;4411885;32;20060;-75
2021/05/29 08:41:53;;;;;;;10.35;6.55;;;;;;;25.41;38.60;101870.56;4413521;32;20111;-75
2021/05/29 08:44:19;;;;;;;12.85;6.57;;;;;;;25.67;37.15;101874.91;4413766;32;20076;-75
2021/05/29 08:46:45;;;;;;;10.48;6.22;;;;;;;25.34;37.79;101874.72;4410503;32;20417;-75
2021/05/29 08:49:10;;;;;;;12.70;5.75;;;;;;;25.51;37.35;101874.81;4411953;32;20068;-75
2021/05/29 08:51:37;;;;;;;9.18;5.53;;;;;;;25.67;37.13;101874.13;4408465;32;20065;-74
2021/05/29 08:54:03;;;;;;;10.93;6.68;;;;;;;25.68;37.29;101873.59;4410771;32;20026;-75
2021/05/29 08:56:29;;;;;;;10.32;6.40;;;;;;;25.56;37.42;101883.50;4414339;32;20062;-75
2021/05/29 08:58:56;;;;;;;9.43;5.87;;;;;;;25.20;38.07;101881.41;4412632;32;20021;-75
2021/05/29 09:01:23;;;;;;;10.55;6.68;;;;;;;25.32;37.76;101880.22;4409327;32;20078;-75
2021/05/29 09:03:55;;;;;;;9.55;6.22;;;;;;;25.05;38.01;101877.91;4411617;32;20131;-75
2021/05/29 09:09:07;;;;;;;14.18;6.43;;;;;;;25.32;38.26;101891.75;3983041;32;15130542;-75
2021/05/29 09:17:19;;;;;;;10.63;6.20;;;;;;;25.79;36.99;101884.41;4001255;31;15015585;-75
2021/05/29 09:22:34;;;;;;;13.17;6.70;;;;;;;25.63;37.95;101894.56;3990085;31;15017877;-75
2021/05/29 09:27:49;;;;;;;8.97;5.10;;;;;;;26.17;36.99;101888.34;4002392;31;15017670;-75
2021/05/29 09:30:16;;;;;;;9.18;5.10;;;;;;;26.18;36.99;101894.03;4458568;32;20069;-75
2021/05/29 09:32:41;;;;;;;12.93;5.80;;;;;;;25.67;37.02;101891.44;4457138;32;20099;-75
2021/05/29 09:35:09;;;;;;;8.48;5.35;;;;;;;25.58;37.31;101889.53;4461858;32;20025;-75
2021/05/29 09:37:36;;;;;;;8.65;5.62;;;;;;;25.56;37.20;101897.94;4460609;32;21245;-75
2021/05/29 09:42:42;;;;;;;6.63;4.83;;;;;;;26.54;35.90;101910.41;3998029;31;15015677;-74
2021/05/29 09:45:26;;;;;;;7.75;5.30;;;;;;;26.54;35.90;101910.41;4453799;32;20167;-74
2021/05/29 09:48:20;;;;;;;11.10;5.07;;;;;;;26.24;36.09;101904.28;4458299;32;20041;-74
2021/05/29 09:51:07;;;;;;;9.57;4.35;;;;;;;26.70;35.34;101906.78;4454061;32;20512;-74
2021/05/29 09:53:38;;;;;;;7.05;5.07;;;;;;;27.33;33.51;101907.81;4455395;32;20386;-75
2021/05/29 09:56:04;;;;;;;7.93;4.15;;;;;;;27.40;33.83;101901.53;4453852;32;20018;-75
2021/05/29 09:58:56;;;;;;;8.82;4.55;;;;;;;27.75;32.85;101906.66;4457281;32;20137;-75
2021/05/29 10:06:59;;;;;;;8.25;3.33;;;;;;;28.73;31.15;101922.00;3982484;32;15029690;-75
2021/05/29 10:09:26;;;;;;;6.53;3.83;;;;;;;28.73;31.15;101922.00;4432859;32;20081;-75
2021/05/29 10:11:53;;;;;;;6.55;3.30;;;;;;;27.83;31.83;101914.28;4433828;32;20050;-75
2021/05/29 10:14:19;;;;;;;10.73;3.40;;;;;;;27.86;31.60;101915.34;4429395;32;20105;-75
2021/05/29 10:16:45;;;;;;;4.60;3.58;;;;;;;27.74;31.77;101920.38;4436816;32;20533;-75
2021/05/29 10:19:12;;;;;;;4.82;3.30;;;;;;;27.47;32.31;101915.44;4439197;32;20380;-75
2021/05/29 10:21:37;;;;;;;6.78;3.60;;;;;;;27.75;31.97;101915.34;4434213;32;20457;-74
2021/05/29 10:24:06;;;;;;;4.32;3.60;;;;;;;27.68;32.36;101913.00;4435840;32;20080;-75
2021/05/29 10:26:33;;;;;;;7.03;3.75;;;;;;;27.83;32.14;101917.19;4437400;32;20103;-75
2021/05/29 10:29:00;;;;;;;6.40;3.60;;;;;;;27.87;32.61;101917.72;4440791;32;20368;-75
2021/05/29 10:31:36;;;;;;;12.20;3.60;;;;;;;28.37;31.81;101924.06;4435691;32;20419;-75
2021/05/29 10:34:03;;;;;;;9.20;3.30;;;;;;;28.91;31.14;101922.16;4437975;32;20349;-75
2021/05/29 10:39:13;;;;;;;5.28;2.75;;;;;;;29.71;28.92;101921.69;3980863;32;15022314;-75
2021/05/29 10:41:59;;;;;;;8.15;3.50;;;;;;;30.09;29.03;101912.50;4434028;32;20044;-75
2021/05/29 10:44:29;;;;;;;4.72;2.85;;;;;;;30.30;29.24;101921.47;4439838;32;20081;-75
2021/05/29 10:47:17;;;;;;;4.80;2.90;;;;;;;30.03;28.58;101920.50;4435121;32;20151;-75
2021/05/29 10:49:54;;;;;;;8.65;3.97;;;;;;;29.57;29.08;101926.53;4434698;32;20071;-75
2021/05/29 11:03:28;;;;;;;7.28;3.67;;;;;;;30.40;28.76;101928.50;3983798;32;15022546;-75
2021/05/29 11:06:21;;;;;;;5.80;3.00;;;;;;;30.40;28.76;101928.50;4441398;32;20129;-74
2021/05/29 11:08:54;;;;;;;8.02;3.28;;;;;;;30.02;28.80;101921.03;4437326;32;20048;-75
2021/05/29 11:19:34;;;;;;;9.50;3.97;;;;;;;30.55;28.53;101920.84;3984224;32;15022294;-75
2021/05/29 11:27:32;;;;;;;6.32;4.12;;;;;;;31.52;27.73;101923.22;3984486;32;15021873;-75
2021/05/29 11:35:21;;;;;;;6.70;3.60;;;;;;;32.58;25.99;101932.94;3990663;31;15016717;-75
2021/05/29 11:43:53;;;;;;;7.10;3.30;;;;;;;32.19;25.82;101938.84;3978249;32;15023636;-75
2021/05/29 11:46:26;;;;;;;8.32;3.30;;;;;;;32.19;25.82;101938.84;4427326;32;20049;-75
2021/05/29 11:51:34;;;;;;;9.27;4.50;;;;;;;30.80;27.59;101922.34;3949896;32;15721437;-75
2021/05/29 11:56:47;;;;;;;5.55;3.40;;;;;;;30.52;28.23;101921.16;3976319;32;15044829;-75
2021/05/29 11:59:14;;;;;;;8.85;3.55;;;;;;;30.52;28.23;101921.16;4440317;32;20083;-75
2021/05/29 12:01:44;;;;;;;5.25;3.37;;;;;;;30.55;27.77;101923.75;4424106;32;20049;-75
2021/05/29 12:04:13;;;;;;;5.18;3.10;;;;;;;31.08;27.01;101924.81;4431741;32;20049;-75
2021/05/29 12:09:26;;;;;;;8.10;3.90;;;;;;;30.75;27.21;101929.06;3991851;32;15021556;-75
2021/05/29 12:14:38;;;;;;;5.57;3.72;;;;;;;29.59;28.86;101934.72;3957351;32;15723505;-75
2021/05/29 12:17:11;;;;;;;5.60;3.95;;;;;;;29.59;28.86;101934.72;4427134;32;20070;-75
2021/05/29 12:24:59;;;;;;;6.17;3.37;;;;;;;28.97;29.52;101927.88;4009212;31;15018738;-75
2021/05/29 12:27:27;;;;;;;5.93;3.55;;;;;;;29.15;29.14;101932.25;4469070;32;20111;-75
2021/05/29 12:35:11;;;;;;;5.50;3.60;;;;;;;29.81;27.76;101934.47;3974788;32;15022289;-75
2021/05/29 12:37:38;;;;;;;5.93;4.05;;;;;;;29.81;27.76;101934.47;4422666;32;20049;-75
2021/05/29 12:40:13;;;;;;;6.75;3.28;;;;;;;29.22;28.55;101934.53;4424387;32;20046;-75
2021/05/29 12:47:57;;;;;;;9.03;3.33;;;;;;;30.79;24.00;101929.50;4005234;31;15021048;-75
2021/05/29 12:50:26;;;;;;;4.87;2.67;;;;;;;30.79;24.00;101929.50;4455332;32;20254;-75
2021/05/29 12:53:06;;;;;;;5.35;2.60;;;;;;;30.80;24.04;101922.34;4453604;32;20068;-75
2021/05/29 12:55:32;;;;;;;8.45;2.28;;;;;;;30.64;24.25;101932.09;4455014;32;20049;-75
2021/05/29 12:57:57;;;;;;;5.05;2.55;;;;;;;30.92;23.96;101936.72;4442910;32;20037;-75
2021/05/29 13:00:32;;;;;;;3.90;2.10;;;;;;;32.14;22.85;101933.91;4439975;32;20461;-75
2021/05/29 13:11:31;;;;;;;2.10;1.90;;;;;;;35.81;16.28;101939.00;3983651;32;15022023;-75